createdAt,value
2019-03-15T00:02:49.471Z,99463.41
2019-03-15T00:10:39.609Z,99482.28
2019-03-15T00:15:42.180Z,99493.08
2019-03-15T00:18:10.678Z,99500.00
2019-03-15T00:20:39.103Z,99501.06
2019-03-15T00:23:07.530Z,99505.95
2019-03-15T00:25:35.990Z,99504.17
2019-03-15T00:28:04.417Z,99500.61
2019-03-15T00:30:52.265Z,99503.19
2019-03-15T00:33:20.702Z,99494.55
2019-03-15T00:38:42.347Z,99500.95
2019-03-15T00:41:11.097Z,99503.36
2019-03-15T00:46:15.425Z,99503.36
2019-03-15T00:48:43.933Z,99518.00
2019-03-15T00:51:12.364Z,99510.98
2019-03-15T00:53:40.789Z,99512.80
2019-03-15T00:56:09.245Z,99513.37
2019-03-15T00:58:37.756Z,99509.30
2019-03-15T01:01:06.177Z,99511.39
2019-03-15T01:06:08.334Z,99520.89
2019-03-15T01:08:36.756Z,99517.41
2019-03-15T01:11:24.560Z,99514.55
2019-03-15T01:13:52.985Z,99511.24
2019-03-15T01:16:21.414Z,99511.18
2019-03-15T01:18:49.868Z,99506.41
2019-03-15T01:21:18.294Z,99504.73
2019-03-15T01:23:46.723Z,99516.28
2019-03-15T01:26:15.173Z,99517.91
2019-03-15T01:29:02.856Z,99519.34
2019-03-15T01:31:31.311Z,99515.86
2019-03-15T01:33:59.744Z,99514.91
2019-03-15T01:36:28.152Z,99517.59
2019-03-15T01:41:30.911Z,99518.86
2019-03-15T01:43:59.362Z,99515.25
2019-03-15T01:46:27.812Z,99512.36
2019-03-15T01:49:15.559Z,99521.41
2019-03-15T01:54:18.325Z,99526.31
2019-03-15T01:59:40.012Z,99524.88
2019-03-15T02:04:42.633Z,99510.09
2019-03-15T02:09:45.098Z,99505.00
2019-03-15T02:12:13.564Z,99500.14
2019-03-15T02:14:41.989Z,99506.83
2019-03-15T02:17:10.419Z,99506.39
2019-03-15T02:19:38.897Z,99511.91
2019-03-15T02:22:08.398Z,99505.55
2019-03-15T02:24:37.491Z,99500.45
2019-03-15T02:27:05.941Z,99499.19
2019-03-15T02:29:34.368Z,99504.83
2019-03-15T02:32:02.789Z,99501.59
2019-03-15T02:37:06.954Z,99505.84
2019-03-15T02:42:10.061Z,99516.36
2019-03-15T02:44:39.180Z,99509.02
2019-03-15T02:47:08.816Z,99514.13
2019-03-15T02:49:37.246Z,99510.79
2019-03-15T02:52:05.673Z,99499.61
2019-03-15T02:54:34.136Z,99502.09
2019-03-15T02:57:02.561Z,99499.28
2019-03-15T02:59:30.981Z,99495.67
2019-03-15T03:02:00.683Z,99502.59
2019-03-15T03:04:29.338Z,99508.92
2019-03-15T03:06:57.769Z,99500.02
2019-03-15T03:09:26.413Z,99504.76
2019-03-15T03:11:54.828Z,99504.80
2019-03-15T03:14:23.261Z,99508.94
2019-03-15T03:16:51.712Z,99501.45
2019-03-15T03:19:20.137Z,99498.68
2019-03-15T03:21:48.597Z,99501.88
2019-03-15T03:24:17.403Z,99505.04
2019-03-15T03:26:45.845Z,99502.38
2019-03-15T03:29:14.266Z,99504.63
2019-03-15T03:31:44.236Z,99504.27
2019-03-15T03:34:13.346Z,99497.52
2019-03-15T03:36:41.787Z,99505.64
2019-03-15T03:39:10.269Z,99506.97
2019-03-15T03:41:38.708Z,99505.09
2019-03-15T03:44:07.116Z,99509.16
2019-03-15T03:46:35.599Z,99511.69
2019-03-15T03:49:04.025Z,99507.53
2019-03-15T03:51:32.450Z,99509.11
2019-03-15T03:54:01.110Z,99511.91
2019-03-15T03:56:29.533Z,99516.94
2019-03-15T03:58:58.027Z,99522.22
2019-03-15T04:01:27.284Z,99506.72
2019-03-15T04:03:55.782Z,99514.19
2019-03-15T04:06:24.235Z,99509.66
2019-03-15T04:08:52.796Z,99517.55
2019-03-15T04:11:21.278Z,99514.50
2019-03-15T04:13:49.649Z,99500.77
2019-03-15T04:16:18.259Z,99504.67
2019-03-15T04:18:46.700Z,99509.62
2019-03-15T04:21:15.132Z,99507.69
2019-03-15T04:23:43.703Z,99503.00
2019-03-15T04:26:12.134Z,99510.63
2019-03-15T04:28:40.561Z,99505.80
2019-03-15T04:31:09.034Z,99511.18
2019-03-15T04:33:37.475Z,99502.23
2019-03-15T04:36:05.896Z,99497.52
2019-03-15T04:38:34.489Z,99491.16
2019-03-15T04:41:02.932Z,99494.16
2019-03-15T04:43:31.358Z,99488.92
2019-03-15T04:45:59.894Z,99492.16
2019-03-15T04:48:28.331Z,99488.20
2019-03-15T04:50:56.756Z,99486.06
2019-03-15T04:53:25.209Z,99487.64
2019-03-15T04:55:53.639Z,99492.02
2019-03-15T04:58:22.074Z,99490.89
2019-03-15T05:00:50.620Z,99489.75
2019-03-15T05:03:19.056Z,99486.87
2019-03-15T05:05:47.491Z,99488.05
2019-03-15T05:08:16.020Z,99486.73
2019-03-15T05:10:44.456Z,99491.00
2019-03-15T05:13:12.898Z,99493.75
2019-03-15T05:15:41.509Z,99493.84
2019-03-15T05:18:09.965Z,99494.36
2019-03-15T05:20:38.398Z,99490.13
2019-03-15T05:23:07.271Z,99485.71
2019-03-15T05:25:35.704Z,99491.70
2019-03-15T05:28:04.131Z,99484.03
2019-03-15T05:30:32.594Z,99490.75
2019-03-15T05:33:01.024Z,99485.09
2019-03-15T05:35:29.463Z,99481.13
2019-03-15T05:37:57.939Z,99486.38
2019-03-15T05:40:26.366Z,99488.34
2019-03-15T05:42:54.820Z,99481.70
2019-03-15T05:45:23.314Z,99483.12
2019-03-15T05:47:51.748Z,99477.26
2019-03-15T05:50:20.194Z,99478.08
2019-03-15T05:52:48.896Z,99473.31
2019-03-15T05:55:17.334Z,99469.48
2019-03-15T05:57:45.764Z,99470.23
2019-03-15T06:00:15.605Z,99468.22
2019-03-15T06:02:44.045Z,99465.93
2019-03-15T06:05:12.809Z,99467.00
2019-03-15T06:07:41.450Z,99461.34
2019-03-15T06:10:11.825Z,99461.09
2019-03-15T06:12:40.260Z,99461.15
2019-03-15T06:15:10.765Z,99462.98
2019-03-15T06:17:39.199Z,99455.45
2019-03-15T06:20:11.940Z,99461.00
2019-03-15T06:22:40.420Z,99454.59
2019-03-15T06:25:11.022Z,99446.24
2019-03-15T06:27:39.466Z,99445.79
2019-03-15T06:30:11.182Z,99442.33
2019-03-15T06:32:39.623Z,99435.81
2019-03-15T06:35:10.522Z,99438.56
2019-03-15T06:37:39.315Z,99439.31
2019-03-15T06:40:09.473Z,99441.21
2019-03-15T06:42:37.907Z,99440.18
2019-03-15T06:45:14.256Z,99435.41
2019-03-15T06:47:42.711Z,99433.16
2019-03-15T06:50:11.297Z,99434.38
2019-03-15T06:52:39.762Z,99429.95
2019-03-15T06:55:09.564Z,99429.34
2019-03-15T06:57:38.064Z,99430.95
2019-03-15T07:00:14.925Z,99430.66
2019-03-15T07:02:43.708Z,99424.16
2019-03-15T07:05:12.708Z,99428.08
2019-03-15T07:07:41.219Z,99420.59
2019-03-15T07:10:10.897Z,99420.88
2019-03-15T07:12:40.366Z,99413.75
2019-03-15T07:15:11.352Z,99416.30
2019-03-15T07:17:39.880Z,99409.58
2019-03-15T07:20:18.196Z,99414.11
2019-03-15T07:22:46.802Z,99410.95
2019-03-15T07:25:15.304Z,99406.98
2019-03-15T07:27:43.774Z,99402.91
2019-03-15T07:30:14.146Z,99389.58
2019-03-15T07:32:42.610Z,99385.42
2019-03-15T07:35:11.051Z,99385.66
2019-03-15T07:37:39.487Z,99376.34
2019-03-15T07:40:09.991Z,99380.19
2019-03-15T07:42:38.472Z,99370.25
2019-03-15T07:45:09.437Z,99371.97
2019-03-15T07:47:37.865Z,99372.30
2019-03-15T07:50:09.568Z,99367.25
2019-03-15T07:52:38.001Z,99362.70
2019-03-15T07:55:08.375Z,99365.52
2019-03-15T07:57:36.860Z,99353.09
2019-03-15T08:00:15.623Z,99353.56
2019-03-15T08:02:44.078Z,99356.45
2019-03-15T08:05:12.642Z,99350.73
2019-03-15T08:07:45.350Z,99350.42
2019-03-15T08:10:12.693Z,99354.22
2019-03-15T08:12:41.358Z,99351.69
2019-03-15T08:15:12.199Z,99351.11
2019-03-15T08:17:40.821Z,99347.66
2019-03-15T08:20:13.603Z,99345.33
2019-03-15T08:22:42.104Z,99342.82
2019-03-15T08:25:11.744Z,99340.48
2019-03-15T08:27:40.231Z,99341.31
2019-03-15T08:30:13.761Z,99342.20
2019-03-15T08:32:43.975Z,99337.50
2019-03-15T08:35:13.196Z,99334.85
2019-03-15T08:37:41.802Z,99327.83
2019-03-15T08:40:14.998Z,99333.87
2019-03-15T08:42:43.419Z,99332.61
2019-03-15T08:45:22.778Z,99324.72
2019-03-15T08:47:51.216Z,99324.94
2019-03-15T08:50:59.888Z,99318.50
2019-03-15T08:53:28.313Z,99318.90
2019-03-15T08:55:56.752Z,99320.84
2019-03-15T08:58:25.209Z,99324.14
2019-03-15T09:00:53.636Z,99322.97
2019-03-15T09:03:27.828Z,99317.55
2019-03-15T09:05:52.269Z,99315.56
2019-03-15T09:08:20.693Z,99310.66
2019-03-15T09:10:49.121Z,99309.67
2019-03-15T09:13:17.623Z,99301.33
2019-03-15T09:15:46.050Z,99304.53
2019-03-15T09:18:14.478Z,99307.61
2019-03-15T09:23:16.733Z,99302.96
2019-03-15T09:25:45.166Z,99298.63
2019-03-15T09:30:47.294Z,99294.11
2019-03-15T09:33:15.732Z,99295.03
2019-03-15T09:35:44.195Z,99287.89
2019-03-15T09:41:08.196Z,99285.88
2019-03-15T09:43:36.626Z,99269.83
2019-03-15T09:46:05.065Z,99272.13
2019-03-15T09:51:07.852Z,99270.86
2019-03-15T09:56:09.904Z,99275.59
2019-03-15T09:58:38.338Z,99286.08
2019-03-15T10:04:19.950Z,99267.45
2019-03-15T10:09:45.873Z,99255.23
2019-03-15T10:17:22.969Z,99260.45
2019-03-15T10:20:12.364Z,99263.94
2019-03-15T10:23:05.933Z,99264.58
2019-03-15T10:25:28.881Z,99263.97
2019-03-15T10:27:57.312Z,99264.11
2019-03-15T10:30:25.868Z,99269.59
2019-03-15T10:32:54.297Z,99269.34
2019-03-15T10:35:22.726Z,99270.03
2019-03-15T10:38:10.434Z,99260.36
2019-03-15T10:40:38.862Z,99268.91
2019-03-15T10:43:07.295Z,99258.20
2019-03-15T10:45:35.754Z,99261.63
2019-03-15T10:51:12.274Z,99255.63
2019-03-15T10:53:40.705Z,99251.59
2019-03-15T10:56:09.154Z,99260.41
2019-03-15T10:58:37.617Z,99258.48
2019-03-15T11:01:25.235Z,99264.02
2019-03-15T11:03:53.723Z,99263.47
2019-03-15T11:06:22.150Z,99275.36
2019-03-15T11:08:50.578Z,99266.88
2019-03-15T11:13:55.657Z,99262.13
2019-03-15T11:19:16.697Z,99267.44
2019-03-15T11:21:45.179Z,99263.28
2019-03-15T11:24:13.609Z,99269.28
2019-03-15T11:26:42.069Z,99272.69
2019-03-15T11:29:10.550Z,99279.50
2019-03-15T11:31:38.978Z,99282.89
2019-03-15T11:34:26.707Z,99283.42
2019-03-15T11:36:58.541Z,99283.95
2019-03-15T11:39:44.525Z,99286.89
2019-03-15T11:42:15.015Z,99284.16
2019-03-15T11:45:02.955Z,99284.70
2019-03-15T11:48:03.382Z,99285.50
2019-03-15T11:51:00.593Z,99275.92
2019-03-15T11:53:29.021Z,99292.32
2019-03-15T11:55:57.451Z,99277.91
2019-03-15T11:58:25.930Z,99278.02
2019-03-15T12:01:13.507Z,99278.55
2019-03-15T12:06:16.530Z,99286.55
2019-03-15T12:08:44.994Z,99280.73
2019-03-15T12:11:13.422Z,99282.08
2019-03-15T12:13:41.849Z,99291.89
2019-03-15T12:16:10.330Z,99303.55
2019-03-15T12:18:38.757Z,99303.34
2019-03-15T12:21:26.414Z,99297.55
2019-03-15T12:23:54.833Z,99308.84
2019-03-15T12:26:23.264Z,99306.23
2019-03-15T12:28:51.722Z,99311.56
2019-03-15T12:31:20.154Z,99307.72
2019-03-15T12:34:07.806Z,99306.42
2019-03-15T12:36:36.238Z,99315.44
2019-03-15T12:39:44.642Z,99310.81
2019-03-15T12:42:32.391Z,99305.14
2019-03-15T12:45:00.876Z,99324.03
2019-03-15T12:47:29.304Z,99322.83
2019-03-15T12:49:57.738Z,99330.33
2019-03-15T12:52:26.248Z,99332.14
2019-03-15T12:54:54.677Z,99331.94
2019-03-15T13:44:22.407Z,99337.20
2019-03-15T13:46:50.849Z,99336.84
2019-03-15T13:49:19.283Z,99339.72
2019-03-15T13:54:21.345Z,99362.11
2019-03-15T13:56:49.829Z,99353.06
2019-03-15T13:59:18.268Z,99353.98
2019-03-15T14:01:53.809Z,99347.25
2019-03-15T14:06:56.269Z,99355.13
2019-03-15T14:09:24.703Z,99340.42
2019-03-15T14:11:53.203Z,99324.52
2019-03-15T14:14:21.647Z,99347.09
2019-03-15T14:16:50.085Z,99342.73
2019-03-15T14:21:52.489Z,99343.03
2019-03-15T14:24:22.821Z,99351.14
2019-03-15T14:26:51.211Z,99336.54
2019-03-15T14:30:17.428Z,99347.70
2019-03-15T14:32:45.879Z,99352.86
2019-03-15T14:35:33.486Z,99343.55
2019-03-15T14:41:47.124Z,99358.80
2019-03-15T14:49:01.882Z,99352.18
2019-03-15T14:51:30.347Z,99343.16
2019-03-15T14:53:58.900Z,99351.55
2019-03-15T14:56:27.616Z,99353.13
2019-03-15T14:58:56.080Z,99353.22
2019-03-15T15:01:24.528Z,99340.28
2019-03-15T15:03:53.100Z,99342.77
2019-03-15T15:06:21.614Z,99343.30
2019-03-15T15:08:50.060Z,99345.12
2019-03-15T15:11:18.941Z,99336.36
2019-03-15T15:13:47.479Z,99333.66
2019-03-15T15:16:15.926Z,99342.94
2019-03-15T15:18:44.576Z,99338.28
2019-03-15T15:21:13.042Z,99337.04
2019-03-15T15:23:41.484Z,99327.00
2019-03-15T15:26:09.977Z,99338.23
2019-03-15T15:28:38.424Z,99340.81
2019-03-15T15:31:06.899Z,99347.91
2019-03-15T15:33:35.569Z,99342.86
2019-03-15T15:36:04.169Z,99340.34
2019-03-15T15:38:32.613Z,99355.27
2019-03-15T15:41:01.130Z,99353.63
2019-03-15T15:43:29.596Z,99354.08
2019-03-15T15:45:58.047Z,99354.88
2019-03-15T15:48:26.955Z,99365.08
2019-03-15T15:50:55.466Z,99364.99
2019-03-15T15:56:52.493Z,99351.23
2019-03-15T15:59:20.940Z,99363.86
2019-03-15T16:02:14.549Z,99364.03
2019-03-15T16:04:43.002Z,99378.50
2019-03-15T16:07:11.517Z,99374.16
2019-03-15T16:09:40.000Z,99372.77
2019-03-15T16:12:08.457Z,99373.91
2019-03-15T16:14:36.926Z,99377.08
2019-03-15T16:17:05.401Z,99373.45
2019-03-15T16:19:33.854Z,99362.84
2019-03-15T16:22:02.323Z,99363.44
2019-03-15T16:24:30.849Z,99364.86
2019-03-15T16:26:59.302Z,99361.80
2019-03-15T16:29:27.756Z,99357.92
2019-03-15T16:31:56.246Z,99377.91
2019-03-15T16:34:24.695Z,99377.09
2019-03-15T16:36:53.177Z,99369.18
2019-03-15T16:39:21.694Z,99373.94
2019-03-15T16:41:50.146Z,99378.52
2019-03-15T16:44:18.592Z,99380.19
2019-03-15T16:46:47.211Z,99385.58
2019-03-15T16:49:15.661Z,99378.42
2019-03-15T16:51:44.110Z,99382.61
2019-03-15T16:54:13.083Z,99382.14
2019-03-15T16:56:41.552Z,99380.03
2019-03-15T16:59:10.003Z,99383.34
2019-03-15T17:01:38.561Z,99391.44
2019-03-15T17:04:07.010Z,99389.34
2019-03-15T17:06:35.486Z,99391.10
2019-03-15T17:09:04.438Z,99383.32
2019-03-15T17:11:32.885Z,99401.14
2019-03-15T17:14:01.339Z,99397.14
2019-03-15T17:16:30.222Z,99404.58
2019-03-15T17:18:58.787Z,99405.23
2019-03-15T17:21:27.221Z,99398.72
2019-03-15T17:23:55.764Z,99401.30
2019-03-15T17:26:24.280Z,99396.05
2019-03-15T17:28:58.635Z,99407.16
2019-03-15T17:31:22.938Z,99403.50
2019-03-15T17:33:51.386Z,99403.76
2019-03-15T17:36:19.834Z,99407.93
2019-03-15T17:38:48.699Z,99401.56
2019-03-15T17:41:17.146Z,99409.95
2019-03-15T17:43:45.598Z,99406.20
2019-03-15T17:46:14.247Z,99405.42
2019-03-15T17:48:42.800Z,99397.95
2019-03-15T17:51:11.264Z,99400.95
2019-03-15T17:53:40.411Z,99396.73
2019-03-15T17:56:08.924Z,99400.25
2019-03-15T17:58:37.755Z,99399.06
2019-03-15T18:01:06.382Z,99394.62
2019-03-15T18:03:34.831Z,99401.81
2019-03-15T18:06:03.277Z,99399.06
2019-03-15T18:08:31.762Z,99414.92
2019-03-15T18:11:00.206Z,99414.53
2019-03-15T18:13:28.661Z,99414.20
2019-03-15T18:15:57.154Z,99423.38
2019-03-15T18:18:25.596Z,99422.77
2019-03-15T18:20:54.045Z,99428.48
2019-03-15T18:23:22.550Z,99427.77
2019-03-15T18:25:51.079Z,99436.26
2019-03-15T18:28:19.525Z,99437.04
2019-03-15T18:30:48.345Z,99434.77
2019-03-15T18:33:16.832Z,99437.91
2019-03-15T18:35:45.340Z,99446.05
2019-03-15T18:38:13.990Z,99433.81
2019-03-15T18:40:42.441Z,99443.54
2019-03-15T18:43:10.888Z,99451.08
2019-03-15T18:45:39.377Z,99447.30
2019-03-15T18:48:07.909Z,99449.03
2019-03-15T18:50:36.443Z,99450.05
2019-03-15T18:53:05.182Z,99445.73
2019-03-15T18:55:33.629Z,99451.94
2019-03-15T18:58:02.081Z,99447.69
2019-03-15T19:00:30.636Z,99446.75
2019-03-15T19:03:00.146Z,99446.52
2019-03-15T19:05:28.815Z,99451.31
2019-03-15T19:07:57.301Z,99454.20
2019-03-15T19:10:25.756Z,99453.20
2019-03-15T19:12:54.203Z,99459.85
2019-03-15T19:15:22.824Z,99462.75
2019-03-15T19:17:51.442Z,99466.63
2019-03-15T19:20:20.015Z,99463.31
2019-03-15T19:22:48.610Z,99463.07
2019-03-15T19:25:17.203Z,99469.19
2019-03-15T19:27:45.802Z,99480.34
2019-03-15T19:30:19.131Z,99477.97
2019-03-15T19:32:47.571Z,99487.95
2019-03-15T19:35:16.101Z,99485.05
2019-03-15T19:37:44.597Z,99490.77
2019-03-15T19:40:15.354Z,99495.86
2019-03-15T19:42:45.445Z,99508.10
2019-03-15T19:45:17.951Z,99506.84
2019-03-15T19:47:46.463Z,99508.00
2019-03-15T19:50:20.075Z,99510.61
2019-03-15T19:52:48.634Z,99509.03
2019-03-15T19:55:17.532Z,99508.73
2019-03-15T19:57:46.090Z,99512.27
2019-03-15T20:00:16.273Z,99513.20
2019-03-15T20:02:44.789Z,99516.16
2019-03-15T20:05:13.577Z,99514.20
2019-03-15T20:07:42.219Z,99512.97
2019-03-15T20:10:16.882Z,99520.39
2019-03-15T20:12:45.620Z,99516.27
2019-03-15T20:15:15.612Z,99530.54
2019-03-15T20:17:44.136Z,99530.54
2019-03-15T20:20:14.017Z,99538.55
2019-03-15T20:22:42.876Z,99538.45
2019-03-15T20:25:12.907Z,99539.88
2019-03-15T20:27:41.361Z,99541.73
2019-03-15T20:30:25.960Z,99543.41
2019-03-15T20:32:50.395Z,99551.06
2019-03-15T20:35:18.913Z,99562.52
2019-03-15T20:37:47.827Z,99561.41
2019-03-15T20:40:16.345Z,99558.94
2019-03-15T20:42:44.797Z,99554.53
2019-03-15T20:45:21.644Z,99567.06
2019-03-15T20:47:50.284Z,99563.33
2019-03-15T20:50:18.786Z,99569.29
2019-03-15T20:52:47.312Z,99566.63
2019-03-15T20:55:35.155Z,99569.29
2019-03-15T21:00:38.133Z,99568.82
2019-03-15T21:03:06.622Z,99576.03
2019-03-15T21:05:35.072Z,99588.39
2019-03-15T21:08:22.718Z,99587.53
2019-03-15T21:10:51.663Z,99585.41
2019-03-15T21:13:21.324Z,99581.49
2019-03-15T21:18:23.730Z,99596.39
2019-03-15T21:21:11.468Z,99598.20
2019-03-15T21:23:39.913Z,99601.92
2019-03-15T21:26:08.365Z,99601.22
2019-03-15T21:28:36.854Z,99611.88
2019-03-15T21:31:05.300Z,99603.41
2019-03-15T21:33:33.757Z,99609.53
2019-03-15T21:36:21.557Z,99601.01
2019-03-15T21:38:50.010Z,99603.41
2019-03-15T21:41:18.461Z,99601.49
2019-03-15T21:46:21.057Z,99604.00
2019-03-15T21:48:49.506Z,99617.45
2019-03-15T21:51:17.987Z,99612.04
2019-03-15T21:53:46.444Z,99622.16
2019-03-15T21:56:14.894Z,99622.20
2019-03-15T21:58:43.374Z,99622.83
2019-03-15T22:01:11.836Z,99621.61
2019-03-15T22:03:40.272Z,99628.19
2019-03-15T22:06:27.969Z,99622.63
2019-03-15T22:08:56.419Z,99629.70
2019-03-15T22:11:24.865Z,99631.02
2019-03-15T22:16:27.013Z,99638.00
2019-03-15T22:18:55.465Z,99640.58
2019-03-15T22:24:17.665Z,99648.81
2019-03-15T22:26:46.150Z,99650.00
2019-03-15T22:29:14.598Z,99641.23
2019-03-15T22:32:02.638Z,99647.34
2019-03-15T22:34:31.084Z,99645.04
2019-03-15T22:36:59.533Z,99651.80
2019-03-15T22:42:01.967Z,99659.96
2019-03-15T22:44:30.452Z,99666.30
2019-03-15T22:46:58.910Z,99664.11
2019-03-15T22:49:27.375Z,99663.17
2019-03-15T22:54:29.489Z,99669.76
2019-03-15T22:59:31.977Z,99668.95
2019-03-15T23:02:00.438Z,99666.33
2019-03-15T23:07:03.236Z,99679.80
2019-03-15T23:09:51.131Z,99671.48
2019-03-15T23:12:19.576Z,99677.50
2019-03-15T23:14:48.029Z,99673.14
2019-03-15T23:17:16.527Z,99668.82
2019-03-15T23:19:45.000Z,99665.14
2019-03-15T23:22:13.450Z,99671.64
2019-03-15T23:24:41.933Z,99666.45
2019-03-15T23:27:10.382Z,99676.75
2019-03-15T23:29:38.830Z,99679.38
2019-03-15T23:34:40.833Z,99681.50
2019-03-15T23:37:09.281Z,99674.95
2019-03-15T23:42:11.988Z,99675.02
2019-03-15T23:47:34.006Z,99670.84
2019-03-15T23:52:36.426Z,99670.16
2019-03-15T23:55:44.933Z,99671.64
2019-03-15T23:58:13.380Z,99674.63
